createdAt,value
2018-12-15T00:01:53.198Z,67.42
2018-12-15T00:04:21.520Z,67.97
2018-12-15T00:06:49.786Z,67.27
2018-12-15T00:09:18.072Z,67.39
2018-12-15T00:11:46.449Z,67.53
2018-12-15T00:14:14.827Z,67.59
2018-12-15T00:16:43.194Z,68.02
2018-12-15T00:19:11.454Z,67.49
2018-12-15T00:21:39.993Z,67.35
2018-12-15T00:24:08.234Z,67.20
2018-12-15T00:26:36.563Z,67.53
2018-12-15T00:29:04.870Z,66.91
2018-12-15T00:31:33.207Z,67.76
2018-12-15T00:34:01.416Z,67.42
2018-12-15T00:36:29.651Z,68.30
2018-12-15T00:38:57.926Z,67.42
2018-12-15T00:41:26.137Z,67.65
2018-12-15T00:43:54.386Z,67.60
2018-12-15T00:46:22.642Z,67.44
2018-12-15T00:48:50.935Z,67.63
2018-12-15T00:51:19.206Z,67.68
2018-12-15T00:53:47.416Z,67.76
2018-12-15T00:56:15.648Z,67.39
2018-12-15T00:58:43.955Z,67.75
2018-12-15T01:01:12.272Z,67.63
2018-12-15T01:03:40.700Z,67.66
2018-12-15T01:06:09.926Z,68.34
2018-12-15T01:08:38.246Z,67.68
2018-12-15T01:11:06.583Z,67.26
2018-12-15T01:13:35.235Z,67.46
2018-12-15T01:16:04.206Z,67.44
2018-12-15T01:18:32.830Z,68.03
2018-12-15T01:21:01.103Z,68.06
2018-12-15T01:23:29.382Z,68.12
2018-12-15T01:25:57.602Z,68.01
2018-12-15T01:28:25.835Z,67.70
2018-12-15T01:30:54.332Z,68.08
2018-12-15T01:33:22.616Z,67.56
2018-12-15T01:35:50.825Z,67.74
2018-12-15T01:38:19.148Z,67.64
2018-12-15T01:40:47.365Z,67.81
2018-12-15T01:43:15.598Z,67.59
2018-12-15T01:45:43.805Z,67.69
2018-12-15T01:48:12.034Z,67.72
2018-12-15T01:53:14.750Z,66.89
2018-12-15T01:55:42.995Z,66.87
2018-12-15T01:58:11.237Z,66.84
2018-12-15T02:00:39.497Z,67.27
2018-12-15T02:03:14.037Z,67.63
2018-12-15T02:05:42.368Z,67.22
2018-12-15T02:08:10.589Z,66.51
2018-12-15T02:10:38.836Z,66.72
2018-12-15T02:13:07.073Z,67.43
2018-12-15T02:15:35.423Z,67.50
2018-12-15T02:18:03.662Z,68.28
2018-12-15T02:20:32.027Z,67.95
2018-12-15T02:23:00.243Z,67.84
2018-12-15T02:25:28.602Z,68.10
2018-12-15T02:27:56.814Z,67.45
2018-12-15T02:30:34.960Z,67.76
2018-12-15T02:33:03.217Z,67.95
2018-12-15T02:35:31.513Z,67.32
2018-12-15T02:37:59.821Z,67.60
2018-12-15T02:40:28.056Z,67.53
2018-12-15T02:42:56.245Z,67.60
2018-12-15T02:45:24.630Z,67.42
2018-12-15T02:47:52.885Z,67.63
2018-12-15T02:50:21.112Z,67.76
2018-12-15T02:52:49.305Z,67.93
2018-12-15T02:55:17.498Z,67.95
2018-12-15T02:57:45.843Z,67.84
2018-12-15T03:00:14.180Z,67.72
2018-12-15T03:02:42.497Z,67.67
2018-12-15T03:05:10.839Z,68.14
2018-12-15T03:07:39.123Z,67.97
2018-12-15T03:10:07.601Z,68.59
2018-12-15T03:12:35.878Z,68.30
2018-12-15T03:15:04.522Z,68.41
2018-12-15T03:17:32.858Z,68.76
2018-12-15T03:20:01.994Z,68.70
2018-12-15T03:22:30.353Z,68.80
2018-12-15T03:24:58.644Z,68.03
2018-12-15T03:27:27.488Z,67.79
2018-12-15T03:29:55.742Z,68.47
2018-12-15T03:32:24.143Z,68.67
2018-12-15T03:34:55.370Z,68.65
2018-12-15T03:37:23.572Z,68.97
2018-12-15T03:39:51.918Z,68.93
2018-12-15T03:42:20.227Z,69.45
2018-12-15T03:44:48.431Z,69.44
2018-12-15T03:47:16.776Z,69.84
2018-12-15T03:49:45.129Z,69.49
2018-12-15T03:52:13.537Z,69.69
2018-12-15T03:54:42.032Z,69.97
2018-12-15T03:57:10.266Z,70.18
2018-12-15T03:59:38.945Z,69.90
2018-12-15T04:02:07.670Z,70.31
2018-12-15T04:04:36.301Z,69.99
2018-12-15T04:07:04.616Z,70.44
2018-12-15T04:09:32.932Z,69.97
2018-12-15T04:12:01.216Z,70.33
2018-12-15T04:14:29.504Z,69.98
2018-12-15T04:16:57.840Z,69.95
2018-12-15T04:19:26.073Z,70.37
2018-12-15T04:22:04.559Z,70.38
2018-12-15T04:24:32.786Z,70.11
2018-12-15T04:27:01.231Z,70.86
2018-12-15T04:29:29.456Z,70.89
2018-12-15T04:31:57.681Z,70.92
2018-12-15T04:34:25.997Z,70.96
2018-12-15T04:36:54.265Z,71.16
2018-12-15T04:39:22.486Z,71.02
2018-12-15T04:41:50.680Z,70.75
2018-12-15T04:44:19.188Z,71.17
2018-12-15T04:46:48.514Z,71.71
2018-12-15T04:49:16.769Z,71.59
2018-12-15T04:51:45.088Z,71.90
2018-12-15T04:54:13.551Z,71.73
2018-12-15T04:56:41.933Z,72.17
2018-12-15T04:59:10.453Z,71.82
2018-12-15T05:01:38.699Z,71.97
2018-12-15T05:04:06.897Z,72.00
2018-12-15T05:06:35.143Z,71.91
2018-12-15T05:09:03.460Z,71.93
2018-12-15T05:11:31.727Z,72.52
2018-12-15T05:13:59.955Z,72.14
2018-12-15T05:16:28.280Z,71.83
2018-12-15T05:18:56.523Z,71.99
2018-12-15T05:21:24.800Z,71.67
2018-12-15T05:23:53.187Z,72.10
2018-12-15T05:26:21.437Z,71.44
2018-12-15T05:28:49.657Z,71.70
2018-12-15T05:31:17.936Z,72.13
2018-12-15T05:33:46.185Z,72.05
2018-12-15T05:36:14.427Z,71.74
2018-12-15T05:38:42.743Z,71.81
2018-12-15T05:41:10.988Z,72.06
2018-12-15T05:43:39.297Z,72.55
2018-12-15T05:46:07.513Z,72.22
2018-12-15T05:48:35.775Z,71.95
2018-12-15T05:51:04.021Z,71.38
2018-12-15T05:53:32.237Z,71.62
2018-12-15T05:56:00.463Z,72.40
2018-12-15T05:58:28.686Z,72.20
2018-12-15T06:00:56.922Z,72.06
2018-12-15T06:03:25.209Z,72.34
2018-12-15T06:05:53.434Z,72.03
2018-12-15T06:08:21.633Z,72.31
2018-12-15T06:10:49.955Z,72.20
2018-12-15T06:13:18.181Z,73.30
2018-12-15T06:15:46.424Z,72.73
2018-12-15T06:18:14.650Z,73.19
2018-12-15T06:20:43.008Z,73.29
2018-12-15T06:23:11.592Z,72.94
2018-12-15T06:25:39.840Z,73.18
2018-12-15T06:28:08.044Z,73.09
2018-12-15T06:30:36.265Z,73.07
2018-12-15T06:33:04.539Z,73.41
2018-12-15T06:35:32.856Z,72.87
2018-12-15T06:38:01.081Z,72.93
2018-12-15T06:40:29.330Z,73.33
2018-12-15T06:42:57.566Z,73.10
2018-12-15T06:45:25.783Z,73.75
2018-12-15T06:47:54.047Z,73.31
2018-12-15T06:50:22.250Z,73.70
2018-12-15T06:52:50.530Z,73.89
2018-12-15T06:55:18.748Z,73.64
2018-12-15T06:57:46.953Z,73.54
2018-12-15T07:00:15.633Z,73.78
2018-12-15T07:02:43.981Z,73.62
2018-12-15T07:05:12.289Z,73.29
2018-12-15T07:07:40.505Z,74.00
2018-12-15T07:10:08.776Z,73.70
2018-12-15T07:12:36.994Z,73.29
2018-12-15T07:15:05.956Z,73.40
2018-12-15T07:17:34.286Z,73.73
2018-12-15T07:20:02.572Z,73.45
2018-12-15T07:22:30.894Z,73.62
2018-12-15T07:24:59.177Z,73.83
2018-12-15T07:27:27.398Z,73.55
2018-12-15T07:29:55.674Z,73.80
2018-12-15T07:32:23.922Z,74.09
2018-12-15T07:34:52.160Z,74.23
2018-12-15T07:37:20.394Z,74.16
2018-12-15T07:39:48.721Z,74.03
2018-12-15T07:42:16.936Z,73.28
2018-12-15T07:44:45.222Z,74.00
2018-12-15T07:47:13.576Z,74.12
2018-12-15T07:49:41.802Z,74.24
2018-12-15T07:52:10.053Z,74.19
2018-12-15T07:54:38.433Z,73.80
2018-12-15T07:57:06.710Z,73.74
2018-12-15T07:59:34.959Z,74.08
2018-12-15T08:02:03.172Z,73.62
2018-12-15T08:04:31.442Z,73.79
2018-12-15T08:06:59.671Z,73.92
2018-12-15T08:09:27.984Z,74.02
2018-12-15T08:12:01.712Z,74.00
2018-12-15T08:14:30.033Z,73.97
2018-12-15T08:16:58.294Z,73.55
2018-12-15T08:19:26.627Z,74.15
2018-12-15T08:21:54.946Z,74.05
2018-12-15T08:24:23.461Z,74.53
2018-12-15T08:29:44.914Z,74.09
2018-12-15T08:32:13.174Z,73.97
2018-12-15T08:34:46.980Z,74.29
2018-12-15T08:37:15.242Z,73.92
2018-12-15T08:39:43.562Z,74.10
2018-12-15T08:42:11.811Z,73.93
2018-12-15T08:44:40.099Z,74.09
2018-12-15T08:47:08.384Z,73.47
2018-12-15T08:49:36.624Z,74.12
2018-12-15T08:52:04.980Z,74.26
2018-12-15T08:54:33.286Z,74.18
2018-12-15T08:57:01.682Z,74.21
2018-12-15T08:59:30.048Z,73.38
2018-12-15T09:01:58.287Z,73.68
2018-12-15T09:04:26.539Z,73.09
2018-12-15T09:06:54.763Z,72.93
2018-12-15T09:09:23.166Z,73.65
2018-12-15T09:11:52.409Z,72.92
2018-12-15T09:14:20.667Z,73.05
2018-12-15T09:16:48.904Z,73.02
2018-12-15T09:19:17.173Z,72.33
2018-12-15T09:21:45.491Z,73.23
2018-12-15T09:24:13.925Z,73.02
2018-12-15T09:26:42.219Z,72.88
2018-12-15T09:29:10.497Z,72.64
2018-12-15T09:31:38.800Z,72.79
2018-12-15T09:34:07.245Z,72.71
2018-12-15T09:36:35.600Z,72.26
2018-12-15T09:39:04.974Z,72.25
2018-12-15T09:41:33.240Z,72.48
2018-12-15T09:44:01.608Z,72.17
2018-12-15T09:46:29.940Z,72.12
2018-12-15T09:48:58.208Z,72.14
2018-12-15T09:51:26.452Z,71.78
2018-12-15T09:53:54.757Z,72.07
2018-12-15T09:56:22.991Z,71.13
2018-12-15T09:58:51.259Z,70.52
2018-12-15T10:01:19.620Z,70.80
2018-12-15T10:03:47.855Z,70.93
2018-12-15T10:06:16.078Z,70.75
2018-12-15T10:08:44.307Z,71.04
2018-12-15T10:11:12.559Z,70.63
2018-12-15T10:13:40.880Z,70.68
2018-12-15T10:16:09.258Z,71.06
2018-12-15T10:18:37.606Z,70.88
2018-12-15T10:21:05.962Z,70.49
2018-12-15T10:23:34.236Z,70.32
2018-12-15T10:26:02.543Z,70.38
2018-12-15T10:28:30.942Z,70.60
2018-12-15T10:31:04.661Z,70.05
2018-12-15T10:33:32.966Z,70.80
2018-12-15T10:36:01.335Z,70.29
2018-12-15T10:38:29.554Z,70.06
2018-12-15T10:40:57.875Z,70.16
2018-12-15T10:43:26.099Z,70.24
2018-12-15T10:45:54.373Z,69.51
2018-12-15T10:48:22.617Z,69.58
2018-12-15T10:50:50.919Z,69.91
2018-12-15T10:53:19.155Z,68.82
2018-12-15T10:55:47.563Z,68.70
2018-12-15T10:58:15.876Z,68.82
2018-12-15T11:00:49.414Z,68.66
2018-12-15T11:03:17.688Z,68.52
2018-12-15T11:05:45.929Z,67.42
2018-12-15T11:08:14.188Z,67.91
2018-12-15T11:10:42.455Z,67.60
2018-12-15T11:13:10.751Z,67.39
2018-12-15T11:15:39.246Z,67.60
2018-12-15T11:18:07.492Z,67.74
2018-12-15T11:20:35.831Z,67.19
2018-12-15T11:23:04.187Z,66.23
2018-12-15T11:25:32.556Z,67.28
2018-12-15T11:28:00.825Z,66.60
2018-12-15T11:30:29.145Z,66.11
2018-12-15T11:32:57.450Z,66.77
2018-12-15T11:35:25.661Z,66.18
2018-12-15T11:37:53.912Z,65.67
2018-12-15T11:40:22.204Z,66.07
2018-12-15T11:42:50.492Z,66.18
2018-12-15T11:45:18.869Z,65.70
2018-12-15T11:47:47.141Z,66.02
2018-12-15T11:50:15.396Z,66.00
2018-12-15T11:52:43.643Z,65.84
2018-12-15T11:55:11.914Z,65.54
2018-12-15T11:57:40.239Z,65.35
2018-12-15T12:00:09.159Z,65.50
2018-12-15T12:02:37.544Z,65.28
2018-12-15T12:05:06.317Z,65.27
2018-12-15T12:07:34.583Z,65.56
2018-12-15T12:10:02.881Z,64.45
2018-12-15T12:12:31.862Z,64.90
2018-12-15T12:15:00.493Z,64.81
2018-12-15T12:17:28.799Z,65.07
2018-12-15T12:19:57.079Z,65.08
2018-12-15T12:22:25.299Z,64.88
2018-12-15T12:24:53.561Z,64.70
2018-12-15T12:27:21.829Z,64.22
2018-12-15T12:29:50.092Z,64.00
2018-12-15T12:32:18.341Z,65.02
2018-12-15T12:34:46.613Z,64.25
2018-12-15T12:37:14.842Z,63.99
2018-12-15T12:39:43.174Z,64.19
2018-12-15T12:42:11.393Z,64.00
2018-12-15T12:44:39.811Z,64.59
2018-12-15T12:47:08.116Z,63.64
2018-12-15T12:49:36.542Z,63.48
2018-12-15T12:52:04.885Z,62.39
2018-12-15T12:54:33.226Z,61.75
2018-12-15T12:57:01.598Z,61.55
2018-12-15T12:59:29.904Z,59.83
2018-12-15T13:01:58.199Z,58.22
2018-12-15T13:04:26.548Z,58.15
2018-12-15T13:06:54.862Z,58.37
2018-12-15T13:09:23.398Z,58.23
2018-12-15T13:11:51.861Z,58.38
2018-12-15T13:17:12.618Z,56.72
2018-12-15T13:19:40.934Z,57.49
2018-12-15T13:22:09.198Z,57.45
2018-12-15T13:24:37.513Z,57.62
2018-12-15T13:27:05.820Z,57.80
2018-12-15T13:29:34.250Z,58.04
2018-12-15T13:32:02.547Z,57.92
2018-12-15T13:34:30.802Z,58.03
2018-12-15T13:36:59.193Z,57.38
2018-12-15T13:39:27.540Z,57.34
2018-12-15T13:41:55.851Z,56.86
2018-12-15T13:44:24.107Z,57.63
2018-12-15T13:46:52.409Z,57.53
2018-12-15T13:49:20.761Z,57.75
2018-12-15T13:51:49.048Z,57.94
2018-12-15T13:54:17.319Z,57.88
2018-12-15T13:56:45.587Z,57.24
2018-12-15T13:59:13.896Z,57.40
2018-12-15T14:01:42.148Z,58.49
2018-12-15T14:04:10.479Z,57.76
2018-12-15T14:06:38.702Z,57.98
2018-12-15T14:09:08.345Z,58.08
2018-12-15T14:11:36.600Z,57.72
2018-12-15T14:14:04.946Z,56.77
2018-12-15T14:16:33.227Z,57.60
2018-12-15T14:19:01.458Z,57.64
2018-12-15T14:21:29.699Z,57.83
2018-12-15T14:23:58.191Z,57.76
2018-12-15T14:26:26.647Z,57.51
2018-12-15T14:28:54.964Z,57.62
2018-12-15T14:31:23.399Z,58.01
2018-12-15T14:33:51.638Z,57.84
2018-12-15T14:36:19.989Z,57.79
2018-12-15T14:38:48.389Z,57.64
2018-12-15T14:41:16.744Z,58.15
2018-12-15T14:43:45.396Z,58.58
2018-12-15T14:46:13.751Z,57.84
2018-12-15T14:48:42.068Z,57.93
2018-12-15T14:51:10.358Z,58.52
2018-12-15T14:53:38.647Z,58.70
2018-12-15T14:56:07.129Z,57.89
2018-12-15T14:58:35.622Z,57.62
2018-12-15T15:01:04.270Z,58.14
2018-12-15T15:03:32.541Z,57.63
2018-12-15T15:06:00.872Z,56.81
2018-12-15T15:08:29.193Z,56.59
2018-12-15T15:10:57.463Z,56.34
2018-12-15T15:13:25.843Z,56.64
2018-12-15T15:15:54.178Z,56.35
2018-12-15T15:18:22.536Z,56.20
2018-12-15T15:20:50.951Z,56.92
2018-12-15T15:23:19.216Z,56.77
2018-12-15T15:25:47.453Z,56.97
2018-12-15T15:28:15.710Z,57.40
2018-12-15T15:30:43.950Z,57.88
2018-12-15T15:33:12.210Z,57.60
2018-12-15T15:35:40.464Z,57.02
2018-12-15T15:38:08.758Z,57.96
2018-12-15T15:40:37.085Z,58.21
2018-12-15T15:43:05.458Z,58.32
2018-12-15T15:45:33.947Z,57.98
2018-12-15T15:48:02.332Z,58.07
2018-12-15T15:50:36.414Z,58.26
2018-12-15T15:53:01.647Z,58.62
2018-12-15T15:55:30.244Z,58.53
2018-12-15T15:57:58.750Z,58.54
2018-12-15T16:00:27.157Z,58.22
2018-12-15T16:02:55.470Z,58.45
2018-12-15T16:05:23.755Z,58.64
2018-12-15T16:07:52.141Z,59.18
2018-12-15T16:10:20.437Z,59.19
2018-12-15T16:12:48.842Z,59.81
2018-12-15T16:15:17.168Z,60.17
2018-12-15T16:17:45.474Z,60.33
2018-12-15T16:20:13.840Z,59.88
2018-12-15T16:22:42.112Z,60.50
2018-12-15T16:25:10.534Z,61.04
2018-12-15T16:27:38.854Z,61.14
2018-12-15T16:30:11.366Z,61.22
2018-12-15T16:32:39.842Z,61.84
2018-12-15T16:35:08.269Z,61.74
2018-12-15T16:37:36.518Z,62.01
2018-12-15T16:40:06.106Z,62.26
2018-12-15T16:42:34.494Z,61.92
2018-12-15T16:45:02.799Z,62.75
2018-12-15T16:47:31.089Z,63.14
2018-12-15T16:49:59.406Z,62.80
2018-12-15T16:52:29.153Z,63.18
2018-12-15T16:54:57.971Z,63.60
2018-12-15T16:57:26.262Z,63.86
2018-12-15T16:59:54.683Z,63.79
2018-12-15T17:02:22.975Z,63.96
2018-12-15T17:04:51.419Z,64.00
2018-12-15T17:07:19.724Z,63.91
2018-12-15T17:09:47.994Z,63.88
2018-12-15T17:12:16.284Z,64.02
2018-12-15T17:14:44.637Z,64.12
2018-12-15T17:17:12.883Z,64.60
2018-12-15T17:19:41.142Z,64.57
2018-12-15T17:22:09.514Z,63.78
2018-12-15T17:24:37.754Z,64.55
2018-12-15T17:27:06.431Z,64.24
2018-12-15T17:29:34.764Z,64.20
2018-12-15T17:32:03.080Z,64.65
2018-12-15T17:34:31.562Z,64.56
2018-12-15T17:37:00.256Z,64.59
2018-12-15T17:39:28.730Z,64.54
2018-12-15T17:41:57.142Z,63.97
2018-12-15T17:44:25.753Z,64.97
2018-12-15T17:46:54.129Z,64.54
2018-12-15T17:49:22.744Z,64.33
2018-12-15T17:51:51.020Z,64.50
2018-12-15T17:54:19.324Z,64.63
2018-12-15T17:56:47.633Z,64.78
2018-12-15T17:59:15.884Z,64.85
2018-12-15T18:01:44.136Z,64.38
2018-12-15T18:04:12.535Z,64.79
2018-12-15T18:06:40.956Z,64.54
2018-12-15T18:09:09.698Z,64.50
2018-12-15T18:11:38.033Z,64.53
2018-12-15T18:14:10.158Z,64.47
2018-12-15T18:16:38.504Z,64.07
2018-12-15T18:19:07.046Z,64.01
2018-12-15T18:21:35.319Z,63.82
2018-12-15T18:24:03.550Z,64.27
2018-12-15T18:26:31.919Z,63.96
2018-12-15T18:29:00.854Z,63.51
2018-12-15T18:31:29.830Z,64.74
2018-12-15T18:33:58.136Z,64.70
2018-12-15T18:36:26.406Z,64.66
2018-12-15T18:38:54.647Z,64.87
2018-12-15T18:41:23.036Z,65.13
2018-12-15T18:43:51.242Z,65.50
2018-12-15T18:46:19.499Z,65.23
2018-12-15T18:48:47.900Z,65.42
2018-12-15T18:51:16.593Z,66.03
2018-12-15T18:53:44.993Z,66.16
2018-12-15T18:56:13.391Z,66.30
2018-12-15T18:58:41.718Z,66.12
2018-12-15T19:01:10.093Z,65.87
2018-12-15T19:03:38.385Z,65.99
2018-12-15T19:06:06.720Z,65.73
2018-12-15T19:08:35.036Z,66.33
2018-12-15T19:11:03.325Z,65.37
2018-12-15T19:13:31.572Z,65.53
2018-12-15T19:15:59.988Z,65.10
2018-12-15T19:18:28.288Z,64.88
2018-12-15T19:20:56.670Z,64.25
2018-12-15T19:23:25.366Z,64.36
2018-12-15T19:25:54.339Z,63.67
2018-12-15T19:28:22.751Z,64.00
2018-12-15T19:30:51.109Z,64.20
2018-12-15T19:33:19.390Z,64.26
2018-12-15T19:35:47.698Z,63.34
2018-12-15T19:38:16.004Z,63.60
2018-12-15T19:40:57.256Z,63.50
2018-12-15T19:43:26.437Z,63.65
2018-12-15T19:45:54.929Z,64.05
2018-12-15T19:48:23.265Z,63.61
2018-12-15T19:50:51.569Z,63.81
2018-12-15T19:53:20.069Z,63.58
2018-12-15T19:55:48.328Z,63.01
2018-12-15T19:58:16.608Z,63.81
2018-12-15T20:00:44.870Z,63.21
2018-12-15T20:03:13.190Z,64.10
2018-12-15T20:05:41.480Z,63.56
2018-12-15T20:08:09.760Z,63.51
2018-12-15T20:10:38.052Z,63.29
2018-12-15T20:13:06.334Z,63.99
2018-12-15T20:15:34.720Z,63.22
2018-12-15T20:18:02.965Z,63.76
2018-12-15T20:20:31.232Z,63.14
2018-12-15T20:22:59.749Z,63.70
2018-12-15T20:25:28.033Z,64.14
2018-12-15T20:27:56.425Z,63.69
2018-12-15T20:30:24.871Z,63.98
2018-12-15T20:32:53.252Z,64.27
2018-12-15T20:35:21.533Z,64.09
2018-12-15T20:37:50.080Z,64.10
2018-12-15T20:40:18.413Z,64.28
2018-12-15T20:42:46.727Z,64.39
2018-12-15T20:45:15.076Z,65.70
2018-12-15T20:47:43.427Z,64.88
2018-12-15T20:53:04.563Z,64.47
2018-12-15T20:55:32.858Z,64.41
2018-12-15T20:58:01.125Z,64.30
2018-12-15T21:00:29.423Z,64.51
2018-12-15T21:02:57.723Z,65.04
2018-12-15T21:05:25.926Z,65.84
2018-12-15T21:07:54.224Z,64.30
2018-12-15T21:10:22.463Z,64.70
2018-12-15T21:12:50.838Z,64.44
2018-12-15T21:15:23.142Z,64.81
2018-12-15T21:17:51.453Z,64.67
2018-12-15T21:20:19.755Z,64.76
2018-12-15T21:22:48.053Z,64.96
2018-12-15T21:25:16.875Z,64.64
2018-12-15T21:27:45.189Z,63.61
2018-12-15T21:30:13.953Z,64.54
2018-12-15T21:32:42.213Z,64.13
2018-12-15T21:35:10.552Z,65.10
2018-12-15T21:37:39.280Z,63.96
2018-12-15T21:40:08.085Z,64.66
2018-12-15T21:42:36.370Z,65.10
2018-12-15T21:45:05.140Z,64.48
2018-12-15T21:47:33.537Z,63.99
2018-12-15T21:50:01.992Z,64.58
2018-12-15T21:52:30.608Z,64.18
2018-12-15T21:54:58.922Z,64.18
2018-12-15T21:57:27.407Z,64.24
2018-12-15T21:59:55.668Z,64.46
2018-12-15T22:02:24.087Z,64.77
2018-12-15T22:04:52.489Z,64.47
2018-12-15T22:07:20.821Z,65.04
2018-12-15T22:12:42.225Z,65.35
2018-12-15T22:15:10.653Z,65.09
2018-12-15T22:17:39.001Z,65.50
2018-12-15T22:20:10.049Z,65.85
2018-12-15T22:22:39.934Z,65.95
2018-12-15T22:25:08.269Z,65.67
2018-12-15T22:27:36.551Z,66.09
2018-12-15T22:30:05.527Z,66.16
2018-12-15T22:32:33.855Z,66.40
2018-12-15T22:35:02.139Z,66.55
2018-12-15T22:37:30.441Z,67.30
2018-12-15T22:39:58.675Z,67.45
2018-12-15T22:42:26.956Z,67.40
2018-12-15T22:44:55.357Z,68.14
2018-12-15T22:47:23.588Z,67.92
2018-12-15T22:49:51.893Z,67.71
2018-12-15T22:52:20.691Z,68.24
2018-12-15T22:54:48.973Z,68.75
2018-12-15T22:57:17.383Z,68.46
2018-12-15T22:59:45.691Z,68.94
2018-12-15T23:02:13.955Z,69.62
2018-12-15T23:04:42.173Z,70.26
2018-12-15T23:07:10.557Z,70.63
2018-12-15T23:09:38.842Z,71.05
2018-12-15T23:12:07.213Z,70.86
2018-12-15T23:14:35.576Z,71.70
2018-12-15T23:17:03.891Z,72.04
2018-12-15T23:19:32.219Z,71.95
2018-12-15T23:22:00.520Z,72.40
2018-12-15T23:24:28.821Z,72.16
2018-12-15T23:26:57.111Z,72.96
2018-12-15T23:29:25.447Z,73.19
2018-12-15T23:31:53.744Z,73.28
2018-12-15T23:34:22.481Z,73.54
2018-12-15T23:36:50.845Z,73.25
2018-12-15T23:39:19.161Z,73.12
2018-12-15T23:41:47.744Z,73.60
2018-12-15T23:44:16.021Z,73.32
2018-12-15T23:46:44.317Z,73.01
2018-12-15T23:49:12.519Z,73.08
2018-12-15T23:51:40.748Z,73.80
2018-12-15T23:54:08.997Z,74.11
2018-12-15T23:56:37.268Z,73.99
2018-12-15T23:59:05.641Z,74.08
